Time;durP1;ratioP1;P1;durP2;ratioP2;P2;SDS_P1;SDS_P2;PMS_P1;PMS_P2;Temp;Humidity;BMP_temperature;BMP_pressure;BME280_temperature;BME280_humidity;BME280_pressure;Samples;Min_cycle;Max_cycle;Signal;HPM_P1;HPM_P2
2024/02/07 00:01:24;;;;;;;4.53;1.20;;;;;;;9.56;79.38;98451.63;5031115;28;20068;-75
2024/02/07 00:03:51;;;;;;;3.78;0.70;;;;;;;9.44;79.74;98454.22;5031053;28;20143;-74
2024/02/07 00:06:18;;;;;;;3.78;0.68;;;;;;;9.34;79.43;98453.19;5031052;28;20057;-75
2024/02/07 00:08:45;;;;;;;3.47;0.75;;;;;;;9.24;79.64;98455.69;5031108;28;20092;-75
2024/02/07 00:11:11;;;;;;;2.10;0.57;;;;;;;9.16;79.67;98456.22;5030944;28;20053;-75
2024/02/07 00:13:38;;;;;;;3.70;0.90;;;;;;;9.06;79.79;98455.22;5013284;28;20100;-76
2024/02/07 00:16:05;;;;;;;2.13;0.88;;;;;;;8.98;80.05;98451.34;5030656;28;20045;-74
2024/02/07 00:18:32;;;;;;;4.55;0.80;;;;;;;8.91;80.24;98449.28;5030036;28;20061;-75
2024/02/07 00:20:58;;;;;;;9.07;1.02;;;;;;;8.84;81.12;98449.72;5031031;28;20061;-75
2024/02/07 00:23:25;;;;;;;3.40;0.60;;;;;;;8.80;80.89;98444.78;5013262;28;20479;-76
2024/02/07 00:25:52;;;;;;;3.00;0.70;;;;;;;8.74;80.93;98453.94;5030472;28;20599;-77
2024/02/07 00:28:19;;;;;;;2.60;0.85;;;;;;;8.70;81.20;98455.94;5030723;28;20135;-75
2024/02/07 00:30:46;;;;;;;1.30;0.90;;;;;;;8.66;80.58;98458.88;5013135;28;20055;-76
2024/02/07 00:33:13;;;;;;;3.88;1.00;;;;;;;8.60;80.95;98457.53;5030573;28;20061;-75
2024/02/07 00:35:39;;;;;;;3.00;0.90;;;;;;;8.56;81.44;98466.56;5012694;28;20053;-75
2024/02/07 00:38:06;;;;;;;11.50;1.58;;;;;;;8.54;81.70;98455.31;5030539;28;20129;-74
2024/02/07 00:40:33;;;;;;;4.22;1.33;;;;;;;8.51;81.39;98450.25;5030653;28;20123;-75
2024/02/07 00:43:00;;;;;;;7.43;1.30;;;;;;;8.48;81.01;98449.53;5030584;28;20212;-76
2024/02/07 00:45:29;;;;;;;3.75;1.17;;;;;;;8.43;80.18;98456.88;5030141;28;20046;-75
2024/02/07 00:47:56;;;;;;;5.85;1.05;;;;;;;8.38;80.54;98456.38;5030408;28;20119;-74
2024/02/07 00:50:22;;;;;;;5.95;1.48;;;;;;;8.34;80.59;98449.66;5030333;28;20144;-75
2024/02/07 00:52:49;;;;;;;7.35;1.25;;;;;;;8.27;80.97;98451.88;5030653;28;20449;-75
2024/02/07 00:55:16;;;;;;;3.88;0.90;;;;;;;8.23;81.13;98447.78;5030177;28;20050;-75
2024/02/07 00:57:43;;;;;;;4.78;0.95;;;;;;;8.21;81.45;98447.03;5012776;28;20053;-74
2024/02/07 01:00:14;;;;;;;8.45;1.30;;;;;;;8.18;81.45;98450.69;5030365;28;20057;-79
2024/02/07 01:02:42;;;;;;;5.55;1.30;;;;;;;8.15;81.45;98444.84;5030571;28;20049;-74
2024/02/07 01:05:09;;;;;;;2.97;1.25;;;;;;;8.12;81.27;98443.28;5030152;28;20494;-75
2024/02/07 01:07:36;;;;;;;5.65;1.00;;;;;;;8.10;80.99;98441.69;5030186;28;20053;-74
2024/02/07 01:10:04;;;;;;;7.60;1.10;;;;;;;8.05;80.89;98435.00;5030301;28;20076;-75
2024/02/07 01:12:32;;;;;;;4.00;0.90;;;;;;;8.02;80.92;98432.56;5030319;28;20065;-74
2024/02/07 01:14:59;;;;;;;1.88;0.70;;;;;;;8.01;81.37;98440.53;5012573;28;20045;-75
2024/02/07 01:17:25;;;;;;;6.18;1.13;;;;;;;7.97;80.87;98453.00;5030336;28;20057;-75
2024/02/07 01:19:53;;;;;;;3.95;1.10;;;;;;;7.94;81.12;98454.06;5012499;28;20502;-76
2024/02/07 01:22:20;;;;;;;6.95;1.10;;;;;;;7.92;81.01;98441.97;5030216;28;20061;-75
2024/02/07 01:24:47;;;;;;;7.45;1.50;;;;;;;7.89;81.16;98443.03;5029910;28;20056;-75
2024/02/07 01:27:14;;;;;;;5.38;1.45;;;;;;;7.86;81.02;98443.25;5030014;28;20050;-75
2024/02/07 01:29:41;;;;;;;3.03;1.17;;;;;;;7.85;81.12;98446.78;5031236;28;20553;-75
2024/02/07 01:32:08;;;;;;;8.30;1.33;;;;;;;7.83;80.87;98446.06;5034025;28;20490;-74
2024/02/07 01:34:35;;;;;;;5.57;1.00;;;;;;;7.80;80.83;98452.34;5033963;28;20061;-75
2024/02/07 01:37:02;;;;;;;3.90;1.08;;;;;;;7.79;81.57;98458.53;5033646;28;20053;-75
2024/02/07 01:39:29;;;;;;;7.63;1.05;;;;;;;7.76;81.10;98443.03;5033835;28;20479;-74
2024/02/07 01:41:58;;;;;;;5.13;1.20;;;;;;;7.75;81.39;98458.84;5033641;28;20057;-76
2024/02/07 01:44:28;;;;;;;5.60;1.02;;;;;;;7.74;81.17;98465.03;5033893;28;20422;-74
2024/02/07 01:47:13;;;;;;;7.10;1.15;;;;;;;7.72;81.16;98465.13;5033504;28;20123;-75
2024/02/07 01:49:48;;;;;;;6.53;1.20;;;;;;;7.70;81.16;98472.22;5034122;28;20463;-75
2024/02/07 01:52:21;;;;;;;5.05;1.67;;;;;;;7.67;80.63;98482.94;5033445;28;20057;-76
2024/02/07 01:54:48;;;;;;;5.32;1.20;;;;;;;7.65;80.68;98477.78;5033650;28;20053;-74
2024/02/07 01:57:15;;;;;;;8.30;1.33;;;;;;;7.62;81.06;98488.44;5033194;28;20425;-76
2024/02/07 01:59:43;;;;;;;7.63;0.95;;;;;;;7.59;81.29;98495.69;5033816;28;20045;-74
2024/02/07 02:02:10;;;;;;;6.60;1.15;;;;;;;7.59;81.17;98498.28;5033378;28;20057;-75
2024/02/07 02:04:37;;;;;;;6.00;1.10;;;;;;;7.55;81.13;98492.41;5015568;28;20053;-79
2024/02/07 02:07:04;;;;;;;5.78;1.30;;;;;;;7.53;81.14;98497.75;5033222;28;20045;-75
2024/02/07 02:09:31;;;;;;;5.90;1.30;;;;;;;7.51;81.50;98491.75;5033077;28;20061;-74
2024/02/07 02:11:58;;;;;;;6.75;1.55;;;;;;;7.48;81.29;98494.56;5033375;28;20054;-75
2024/02/07 02:14:25;;;;;;;2.92;0.95;;;;;;;7.47;81.13;98498.13;5033098;28;20056;-75
2024/02/07 02:16:52;;;;;;;9.43;1.20;;;;;;;7.45;81.06;98500.03;5032767;28;20049;-75
2024/02/07 02:19:20;;;;;;;2.15;0.73;;;;;;;7.41;80.93;98498.53;5033023;28;20053;-74
2024/02/07 02:22:32;;;;;;;3.88;0.90;;;;;;;7.35;79.87;98505.00;5033146;28;20053;-74
2024/02/07 02:25:11;;;;;;;4.20;1.48;;;;;;;7.37;81.12;98503.13;5015194;28;20144;-75
2024/02/07 02:27:38;;;;;;;3.05;1.00;;;;;;;7.35;81.51;98504.16;5032858;28;20049;-76
2024/02/07 02:30:19;;;;;;;8.70;1.10;;;;;;;7.32;81.04;98507.81;5033049;28;20045;-75
2024/02/07 02:32:49;;;;;;;5.27;1.07;;;;;;;7.32;81.01;98493.91;5032827;28;20091;-75
2024/02/07 02:35:20;;;;;;;3.15;0.80;;;;;;;7.30;80.82;98499.25;5014988;28;20060;-75
2024/02/07 02:37:49;;;;;;;3.05;0.90;;;;;;;7.29;81.07;98495.75;5015138;28;20091;-75
2024/02/07 02:40:17;;;;;;;6.53;1.67;;;;;;;7.28;81.17;98495.84;5032661;28;20402;-74
2024/02/07 02:42:43;;;;;;;3.17;0.90;;;;;;;7.27;81.24;98478.47;5032275;28;20041;-75
2024/02/07 02:45:10;;;;;;;7.30;0.82;;;;;;;7.26;81.27;98487.28;5032350;28;20056;-74
2024/02/07 02:47:36;;;;;;;4.38;1.05;;;;;;;7.24;81.16;98483.91;5015150;28;20057;-74
2024/02/07 02:50:04;;;;;;;3.38;0.93;;;;;;;7.23;80.93;98490.09;5032569;28;20441;-75
2024/02/07 02:52:31;;;;;;;3.35;1.00;;;;;;;7.23;81.36;98484.84;5032507;28;20100;-74
2024/02/07 02:54:58;;;;;;;6.78;1.15;;;;;;;7.21;81.22;98477.09;5032152;28;20128;-75
2024/02/07 02:57:30;;;;;;;5.30;0.88;;;;;;;7.20;80.67;98475.41;5032551;28;20769;-75
2024/02/07 02:59:57;;;;;;;5.35;1.15;;;;;;;7.18;80.80;98472.06;5014963;28;20056;-75
2024/02/07 03:02:23;;;;;;;7.28;1.20;;;;;;;7.16;80.53;98471.31;5032355;28;20053;-75
2024/02/07 03:04:52;;;;;;;3.38;0.90;;;;;;;7.11;80.81;98468.97;5032162;28;20061;-77
2024/02/07 03:10:12;;;;;;;3.20;0.95;;;;;;;7.08;80.68;98482.28;5016405;28;20136;-74
2024/02/07 03:12:39;;;;;;;4.10;0.98;;;;;;;7.04;80.56;98465.09;5032215;28;20058;-74
2024/02/07 03:15:07;;;;;;;6.20;1.88;;;;;;;7.01;80.53;98471.38;5031887;28;20060;-75
2024/02/07 03:17:33;;;;;;;3.45;0.90;;;;;;;6.99;80.72;98467.16;5031881;28;20056;-77
2024/02/07 03:20:01;;;;;;;3.75;0.77;;;;;;;6.96;80.79;98467.34;5032241;28;20060;-74
2024/02/07 03:22:27;;;;;;;2.58;1.00;;;;;;;6.92;81.04;98466.72;5032066;28;20053;-75
2024/02/07 03:24:55;;;;;;;3.33;0.57;;;;;;;6.91;80.92;98463.25;5031810;28;20092;-75
2024/02/07 03:27:23;;;;;;;2.67;0.82;;;;;;;6.89;80.92;98477.38;5031902;28;20490;-74
2024/02/07 03:29:50;;;;;;;3.70;0.98;;;;;;;6.86;81.08;98486.25;5031815;28;20054;-75
2024/02/07 03:32:19;;;;;;;6.20;1.20;;;;;;;6.83;80.79;98481.19;5031605;28;20141;-74
2024/02/07 03:34:46;;;;;;;3.95;1.05;;;;;;;6.81;80.55;98483.06;5031737;28;20049;-75
2024/02/07 03:37:13;;;;;;;3.40;0.90;;;;;;;6.77;80.88;98479.78;5031457;28;20136;-75
2024/02/07 03:39:39;;;;;;;3.47;1.15;;;;;;;6.73;80.63;98478.31;5031554;28;20049;-75
2024/02/07 03:42:08;;;;;;;4.88;1.05;;;;;;;6.71;80.67;98481.94;5031613;28;20490;-75
2024/02/07 03:44:34;;;;;;;8.23;1.98;;;;;;;6.68;81.23;98482.13;5031581;28;20203;-75
2024/02/07 03:47:00;;;;;;;4.97;1.27;;;;;;;6.67;81.15;98483.06;5031088;28;20100;-76
2024/02/07 03:49:27;;;;;;;3.95;1.17;;;;;;;6.65;81.23;98486.63;5031631;28;20053;-75
2024/02/07 03:51:54;;;;;;;3.28;0.98;;;;;;;6.63;81.33;98483.28;5031330;28;20049;-75
2024/02/07 03:54:21;;;;;;;8.52;1.83;;;;;;;6.62;80.96;98496.44;5031346;28;20053;-74
2024/02/07 03:56:47;;;;;;;7.38;1.50;;;;;;;6.59;81.20;98494.88;5031013;28;20046;-76
2024/02/07 03:59:14;;;;;;;6.07;1.50;;;;;;;6.59;81.44;98494.00;5031134;28;20090;-74
2024/02/07 04:01:45;;;;;;;4.45;0.88;;;;;;;6.57;81.13;98485.41;5031349;28;20486;-76
2024/02/07 04:04:12;;;;;;;4.03;1.10;;;;;;;6.56;81.47;98487.19;5031412;28;20103;-76
2024/02/07 04:06:38;;;;;;;9.43;1.80;;;;;;;6.56;81.47;98486.34;5030896;28;20049;-75
2024/02/07 04:09:05;;;;;;;9.88;1.33;;;;;;;6.56;81.08;98491.56;5031212;28;20465;-74
2024/02/07 05:16:57;;;;;;;12.00;1.63;;;;;;;6.44;82.23;98527.16;5053972;28;20508;-76
2024/02/07 05:19:24;;;;;;;6.35;1.75;;;;;;;6.43;82.07;98528.09;5054273;28;20045;-76
2024/02/07 05:21:51;;;;;;;8.50;1.60;;;;;;;6.44;82.33;98521.91;5054038;28;20056;-75
2024/02/07 05:24:18;;;;;;;8.18;1.38;;;;;;;6.44;82.01;98519.31;5054112;28;20095;-75
2024/02/07 05:26:44;;;;;;;9.40;2.42;;;;;;;6.44;82.27;98535.84;5053728;28;20115;-80
2024/02/07 05:29:15;;;;;;;6.25;1.27;;;;;;;6.45;82.55;98547.97;5053858;28;20553;-75
2024/02/07 05:31:42;;;;;;;8.85;1.38;;;;;;;6.46;82.24;98539.19;5036417;28;20406;-74
2024/02/07 05:34:09;;;;;;;9.35;1.77;;;;;;;6.46;82.25;98528.72;5053853;28;20087;-75
2024/02/07 05:36:40;;;;;;;8.98;1.52;;;;;;;6.47;82.24;98535.63;5052348;28;20057;-75
2024/02/07 05:39:17;;;;;;;8.23;2.00;;;;;;;6.47;82.14;98534.81;5035403;28;20049;-75
2024/02/07 05:41:47;;;;;;;6.05;1.35;;;;;;;6.49;82.36;98538.16;5030938;28;20045;-74
2024/02/07 05:44:14;;;;;;;5.32;1.50;;;;;;;6.49;82.43;98540.78;5033834;28;20057;-76
2024/02/07 05:46:40;;;;;;;6.97;1.35;;;;;;;6.49;82.07;98535.56;5032236;28;20041;-75
2024/02/07 05:49:07;;;;;;;10.05;2.00;;;;;;;6.50;82.40;98538.06;5033676;28;20045;-75
2024/02/07 05:51:34;;;;;;;8.55;2.08;;;;;;;6.51;82.42;98544.16;5033591;28;20052;-75
2024/02/07 05:54:01;;;;;;;6.78;1.48;;;;;;;6.53;82.47;98541.47;5015880;28;20057;-75
2024/02/07 05:56:28;;;;;;;9.38;1.63;;;;;;;6.55;82.66;98537.81;5033272;28;20049;-75
2024/02/07 05:58:54;;;;;;;4.30;1.77;;;;;;;6.57;82.75;98545.53;5033310;28;20049;-75
2024/02/07 06:01:23;;;;;;;7.78;1.50;;;;;;;6.58;82.47;98555.09;5033239;28;20049;-77
2024/02/07 06:03:52;;;;;;;9.27;2.13;;;;;;;6.59;82.83;98570.69;5033078;28;20049;-76
2024/02/07 06:06:19;;;;;;;10.13;2.08;;;;;;;6.62;82.72;98580.13;5032827;28;20049;-76
2024/02/07 06:08:49;;;;;;;7.40;1.80;;;;;;;6.62;82.44;98573.09;5032866;28;20152;-75
2024/02/07 06:11:16;;;;;;;7.80;1.88;;;;;;;6.65;82.70;98596.44;5033616;28;20437;-75
2024/02/07 06:13:44;;;;;;;9.30;2.33;;;;;;;6.68;82.80;98589.34;5033307;28;20386;-75
2024/02/07 06:16:10;;;;;;;9.02;1.90;;;;;;;6.69;82.64;98581.41;5031674;28;20474;-75
2024/02/07 06:18:37;;;;;;;8.20;2.00;;;;;;;6.71;82.65;98586.56;5033033;28;20049;-78
2024/02/07 06:21:04;;;;;;;8.10;1.98;;;;;;;6.72;82.68;98593.47;5032941;28;20434;-76
2024/02/07 06:23:30;;;;;;;8.52;1.90;;;;;;;6.74;82.42;98586.38;5033036;28;20123;-75
2024/02/07 06:25:57;;;;;;;4.88;1.77;;;;;;;6.75;82.61;98598.50;5032991;28;20520;-75
2024/02/07 06:28:24;;;;;;;7.15;1.50;;;;;;;6.76;82.70;98603.66;5031846;28;20064;-75
2024/02/07 06:30:51;;;;;;;10.73;2.22;;;;;;;6.78;82.63;98609.63;5033007;28;20136;-76
2024/02/07 06:33:17;;;;;;;20.25;2.50;;;;;;;6.80;82.42;98619.19;5033333;28;20092;-75
2024/02/07 06:35:45;;;;;;;11.98;2.20;;;;;;;6.81;82.84;98619.09;5032498;28;20060;-76
2024/02/07 06:38:12;;;;;;;11.07;2.25;;;;;;;6.84;82.27;98618.88;5032333;28;20510;-75
2024/02/07 06:40:39;;;;;;;8.52;2.30;;;;;;;6.85;82.53;98627.59;5032938;28;20054;-77
2024/02/07 06:43:06;;;;;;;15.38;2.25;;;;;;;6.87;82.63;98636.16;5032722;28;20132;-76
2024/02/07 06:45:32;;;;;;;8.00;2.03;;;;;;;6.88;82.43;98638.69;5032543;28;20143;-75
2024/02/07 06:48:00;;;;;;;11.35;2.83;;;;;;;6.89;82.44;98637.75;5032708;28;20057;-75
2024/02/07 06:50:27;;;;;;;6.40;2.08;;;;;;;6.91;82.25;98653.38;5032564;28;20061;-75
2024/02/07 06:52:54;;;;;;;6.82;1.88;;;;;;;6.91;82.27;98646.38;5033370;28;20049;-77
2024/02/07 06:55:23;;;;;;;6.75;2.22;;;;;;;6.92;82.06;98649.84;5032916;28;20137;-75
2024/02/07 06:57:50;;;;;;;10.13;1.98;;;;;;;6.93;81.85;98650.66;5032691;28;20120;-76
2024/02/07 07:00:17;;;;;;;8.88;2.17;;;;;;;6.91;81.91;98655.97;5032721;28;20049;-75
2024/02/07 07:02:44;;;;;;;12.82;2.25;;;;;;;6.91;81.76;98656.84;5032393;28;20092;-75
2024/02/07 07:05:10;;;;;;;17.85;2.72;;;;;;;6.91;81.72;98661.22;5032188;28;20425;-78
2024/02/07 07:07:37;;;;;;;8.52;2.05;;;;;;;6.90;81.55;98659.53;5032218;28;20417;-74
2024/02/07 07:10:04;;;;;;;10.07;2.28;;;;;;;6.88;81.66;98664.84;5014604;28;20704;-75
2024/02/07 07:15:00;;;;;;;13.38;2.47;;;;;;;6.85;81.68;98678.13;4987635;28;20086;-79
2024/02/07 07:17:28;;;;;;;8.73;1.98;;;;;;;6.85;82.08;98683.38;4990638;28;20046;-79
2024/02/07 07:19:55;;;;;;;11.05;2.65;;;;;;;6.84;81.72;98681.66;4974859;28;20377;-79
2024/02/07 07:22:23;;;;;;;6.63;2.20;;;;;;;6.83;81.77;98681.75;4991773;28;20687;-80
2024/02/07 07:24:50;;;;;;;8.95;2.20;;;;;;;6.84;82.21;98686.91;4991921;28;20054;-80
2024/02/07 07:27:16;;;;;;;12.80;1.92;;;;;;;6.85;82.04;98682.50;4991571;28;20060;-79
2024/02/07 07:29:43;;;;;;;11.27;2.20;;;;;;;6.85;81.79;98679.91;4992473;28;20050;-80
2024/02/07 07:32:09;;;;;;;7.53;2.40;;;;;;;6.85;82.05;98688.59;4992879;28;20309;-80
2024/02/07 07:34:36;;;;;;;11.98;2.78;;;;;;;6.86;81.97;98686.81;4992460;28;20603;-82
2024/02/07 07:37:03;;;;;;;8.90;2.17;;;;;;;6.87;81.94;98697.19;4992238;28;20058;-78
2024/02/07 07:39:29;;;;;;;6.60;2.30;;;;;;;6.87;82.13;98702.41;4992422;28;20046;-79
2024/02/07 07:41:56;;;;;;;12.40;2.20;;;;;;;6.86;82.09;98705.97;4992308;28;20454;-79
2024/02/07 07:44:22;;;;;;;10.95;2.40;;;;;;;6.88;82.31;98698.88;4992287;28;20050;-79
2024/02/07 07:46:48;;;;;;;11.32;2.90;;;;;;;6.89;82.19;98697.09;4992218;28;20053;-79
2024/02/07 07:49:15;;;;;;;10.07;2.50;;;;;;;6.90;82.44;98697.00;4992419;28;20073;-79
2024/02/07 07:51:42;;;;;;;12.77;2.42;;;;;;;6.93;82.29;98709.06;4992203;28;20054;-80
2024/02/07 07:54:10;;;;;;;17.05;2.70;;;;;;;6.93;82.31;98724.75;4992065;28;20672;-80
2024/02/07 07:56:36;;;;;;;10.80;2.72;;;;;;;6.94;82.02;98720.34;4974356;28;20151;-80
2024/02/07 07:59:03;;;;;;;6.22;2.13;;;;;;;6.95;82.34;98722.88;4991983;28;20078;-80
2024/02/07 08:01:29;;;;;;;14.48;2.42;;;;;;;6.96;82.33;98721.97;4992026;28;20058;-79
2024/02/07 08:03:56;;;;;;;11.13;2.40;;;;;;;6.97;82.52;98718.41;4991736;28;20086;-79
2024/02/07 08:06:23;;;;;;;11.05;1.70;;;;;;;7.00;82.45;98720.84;4991232;28;20046;-79
2024/02/07 08:08:50;;;;;;;12.80;2.47;;;;;;;7.02;82.30;98712.91;4991435;28;20062;-80
2024/02/07 08:11:16;;;;;;;9.07;2.60;;;;;;;7.04;82.34;98705.81;4991219;28;20541;-81
2024/02/07 08:13:42;;;;;;;16.00;3.03;;;;;;;7.06;82.15;98713.59;4991148;28;20054;-77
2024/02/07 08:16:09;;;;;;;11.13;2.90;;;;;;;7.08;82.47;98724.78;4973876;28;20057;-79
2024/02/07 08:18:36;;;;;;;13.02;2.53;;;;;;;7.09;82.51;98724.69;4991537;28;20046;-80
2024/02/07 08:21:02;;;;;;;9.40;2.08;;;;;;;7.12;82.20;98734.13;4991788;28;20064;-79
2024/02/07 08:23:29;;;;;;;9.27;2.50;;;;;;;7.13;82.42;98726.19;4991689;28;20061;-79
2024/02/07 08:25:56;;;;;;;13.70;2.40;;;;;;;7.14;82.37;98717.41;4991315;28;20047;-79
2024/02/07 08:28:22;;;;;;;10.43;2.05;;;;;;;7.16;82.21;98723.41;4991550;28;20060;-79
2024/02/07 08:30:49;;;;;;;8.18;1.67;;;;;;;7.18;82.11;98715.47;4991658;28;20058;-79
2024/02/07 08:33:15;;;;;;;12.38;3.13;;;;;;;7.20;82.09;98721.44;4991473;28;20137;-80
2024/02/07 08:35:42;;;;;;;13.43;2.28;;;;;;;7.21;82.23;98723.13;4991399;28;20478;-79
2024/02/07 08:38:09;;;;;;;7.97;1.83;;;;;;;7.23;82.38;98717.78;4991551;28;20133;-79
2024/02/07 08:40:36;;;;;;;9.98;2.55;;;;;;;7.25;82.65;98723.78;4990792;28;20054;-80
2024/02/07 08:43:06;;;;;;;11.48;2.35;;;;;;;7.28;82.64;98726.22;4991610;28;20070;-78
2024/02/07 08:45:34;;;;;;;9.55;2.40;;;;;;;7.30;82.77;98721.75;4991415;28;20050;-80
2024/02/07 08:48:00;;;;;;;13.43;2.38;;;;;;;7.33;82.92;98734.63;4991504;28;20078;-81
2024/02/07 08:50:27;;;;;;;13.82;2.67;;;;;;;7.36;82.53;98734.44;4991434;28;20058;-78
2024/02/07 08:52:55;;;;;;;13.52;2.72;;;;;;;7.39;82.51;98733.41;4974279;28;20427;-79
2024/02/07 08:55:22;;;;;;;11.00;2.58;;;;;;;7.41;82.48;98735.00;4991001;28;20065;-80
2024/02/07 08:57:49;;;;;;;12.95;2.60;;;;;;;7.43;82.34;98730.53;4991358;28;20132;-77
2024/02/07 09:00:16;;;;;;;10.02;3.05;;;;;;;7.46;82.24;98734.75;4991333;28;20054;-80
2024/02/07 09:02:42;;;;;;;13.60;2.72;;;;;;;7.47;82.20;98727.72;4991207;28;20113;-81
2024/02/07 09:05:09;;;;;;;12.13;2.65;;;;;;;7.48;82.25;98724.19;4991084;28;20046;-78
2024/02/07 09:07:35;;;;;;;15.32;2.60;;;;;;;7.49;82.41;98731.09;4991096;28;20043;-80
2024/02/07 09:10:03;;;;;;;10.18;2.55;;;;;;;7.50;82.10;98738.00;4991358;28;20093;-80
2024/02/07 09:12:29;;;;;;;15.15;2.78;;;;;;;7.52;82.44;98751.84;4991128;28;20046;-79
2024/02/07 09:14:56;;;;;;;11.30;2.38;;;;;;;7.54;82.61;98745.59;4990964;28;20054;-79
2024/02/07 09:17:23;;;;;;;12.13;2.45;;;;;;;7.56;82.36;98745.50;4991181;28;20598;-80
2024/02/07 09:19:51;;;;;;;11.70;2.83;;;;;;;7.58;82.58;98754.09;4991176;28;20133;-79
2024/02/07 09:22:17;;;;;;;15.52;2.78;;;;;;;7.60;82.38;98754.00;4990924;28;20138;-81
2024/02/07 09:24:44;;;;;;;17.65;2.78;;;;;;;7.61;81.98;98767.00;4973480;28;20050;-80
2024/02/07 09:27:11;;;;;;;13.98;2.92;;;;;;;7.62;82.48;98760.81;4991075;28;20061;-80
2024/02/07 09:29:38;;;;;;;18.58;2.90;;;;;;;7.65;82.31;98758.03;4973871;28;20109;-80
2024/02/07 09:32:04;;;;;;;12.38;2.90;;;;;;;7.67;82.52;98766.63;4991023;28;20576;-79
2024/02/07 09:34:31;;;;;;;14.25;2.20;;;;;;;7.71;82.85;98774.31;4990851;28;20053;-80
2024/02/07 09:36:58;;;;;;;12.32;3.22;;;;;;;7.73;82.79;98767.22;4990498;28;20046;-80
2024/02/07 09:39:24;;;;;;;13.80;2.72;;;;;;;7.75;82.45;98778.41;4990905;28;20133;-76
2024/02/07 09:41:51;;;;;;;10.82;2.70;;;;;;;7.79;82.60;98779.91;4990821;28;20495;-79
2024/02/07 09:44:19;;;;;;;12.80;3.03;;;;;;;7.81;82.75;98780.66;4973515;28;20050;-79
2024/02/07 09:46:45;;;;;;;14.70;3.38;;;;;;;7.84;82.77;98777.03;4990494;28;20058;-79
2024/02/07 09:49:15;;;;;;;15.25;3.65;;;;;;;7.86;82.15;98777.75;4990806;28;20482;-79
2024/02/07 09:51:42;;;;;;;13.68;3.13;;;;;;;7.90;82.12;98787.13;4976121;28;20458;-78
2024/02/07 09:54:11;;;;;;;10.68;2.90;;;;;;;7.90;81.93;98787.97;4994414;28;20101;-79
2024/02/07 09:56:40;;;;;;;14.82;3.15;;;;;;;7.92;81.85;98780.84;4976678;28;20046;-79
2024/02/07 09:59:09;;;;;;;12.20;3.05;;;;;;;7.94;82.09;98788.63;4994258;28;20066;-79
2024/02/07 10:01:37;;;;;;;10.15;2.65;;;;;;;7.93;81.84;98782.50;4994101;28;20054;-79
2024/02/07 10:04:09;;;;;;;8.10;3.00;;;;;;;7.93;81.46;98782.50;4994078;28;20133;-79
2024/02/07 10:06:36;;;;;;;14.93;3.05;;;;;;;7.96;81.86;98789.34;4993964;28;20061;-79
2024/02/07 10:09:05;;;;;;;13.88;3.03;;;;;;;7.98;81.68;98784.00;4994138;28;20479;-79
2024/02/07 10:11:32;;;;;;;15.57;2.83;;;;;;;7.99;81.76;98783.91;4994042;28;20054;-79
2024/02/07 10:13:59;;;;;;;17.52;3.92;;;;;;;8.01;81.35;98784.69;4994161;28;20046;-77
2024/02/07 10:16:27;;;;;;;13.90;2.88;;;;;;;8.03;81.39;98789.81;4993593;28;20053;-81
2024/02/07 10:18:55;;;;;;;11.23;2.25;;;;;;;8.02;81.49;98790.75;4993996;28;20100;-80
2024/02/07 10:21:33;;;;;;;17.58;3.38;;;;;;;8.01;80.43;98794.31;4976699;28;20054;-80
2024/02/07 10:24:00;;;;;;;15.73;2.83;;;;;;;8.06;81.23;98800.09;4993870;28;20598;-79
2024/02/07 10:26:26;;;;;;;11.90;2.28;;;;;;;8.07;81.13;98809.66;4993463;28;20113;-79
2024/02/07 10:29:06;;;;;;;18.50;3.13;;;;;;;8.06;80.64;98807.97;4993677;28;20051;-77
2024/02/07 10:31:33;;;;;;;14.18;3.03;;;;;;;8.10;81.62;98806.03;4993771;28;20050;-78
2024/02/07 10:34:00;;;;;;;14.98;2.85;;;;;;;8.10;81.35;98804.22;4993602;28;20065;-79
2024/02/07 10:36:26;;;;;;;13.35;2.55;;;;;;;8.11;81.32;98810.31;4993278;28;20051;-77
2024/02/07 10:39:02;;;;;;;12.32;2.88;;;;;;;8.10;79.71;98814.72;4993432;28;20054;-77
2024/02/07 10:41:28;;;;;;;11.82;2.85;;;;;;;8.14;80.77;98820.59;4993446;28;20097;-79
2024/02/07 10:44:08;;;;;;;14.80;2.78;;;;;;;8.08;79.11;98816.59;4993580;28;20050;-79
2024/02/07 10:46:36;;;;;;;11.57;2.13;;;;;;;8.14;80.58;98823.22;4993378;28;20129;-79
2024/02/07 10:49:02;;;;;;;10.13;2.25;;;;;;;8.14;80.97;98824.06;4993353;28;20129;-78
2024/02/07 10:51:33;;;;;;;14.15;2.60;;;;;;;8.12;79.51;98823.34;4993269;28;20065;-79
2024/02/07 10:54:07;;;;;;;15.27;3.30;;;;;;;8.12;79.88;98823.34;4993103;28;20483;-79
2024/02/07 10:56:35;;;;;;;12.35;2.40;;;;;;;8.14;80.94;98817.97;4993050;28;20062;-79
2024/02/07 10:59:06;;;;;;;12.13;2.60;;;;;;;8.14;81.03;98818.81;4993093;28;20046;-79
2024/02/07 11:01:33;;;;;;;19.67;3.25;;;;;;;8.15;81.01;98817.88;4975570;28;20054;-79
2024/02/07 11:04:00;;;;;;;14.98;2.75;;;;;;;8.16;80.86;98808.25;4992577;28;20058;-78
2024/02/07 11:06:27;;;;;;;14.18;2.83;;;;;;;8.18;80.98;98820.31;4992562;28;20093;-79
2024/02/07 11:08:58;;;;;;;11.77;2.53;;;;;;;8.17;79.93;98818.63;4993087;28;20143;-77
2024/02/07 11:11:26;;;;;;;20.70;2.70;;;;;;;8.20;80.64;98812.38;4992971;28;20055;-79
2024/02/07 11:13:52;;;;;;;17.67;3.15;;;;;;;8.21;80.86;98816.66;4992667;28;20054;-79
2024/02/07 11:16:20;;;;;;;15.85;2.47;;;;;;;8.24;80.63;98820.88;4975298;28;20083;-78
2024/02/07 11:18:46;;;;;;;17.15;2.65;;;;;;;8.26;80.77;98813.75;4992681;28;20682;-79
2024/02/07 11:21:23;;;;;;;12.02;2.80;;;;;;;8.26;79.76;98804.09;4992599;28;20656;-80
2024/02/07 11:23:53;;;;;;;22.02;2.83;;;;;;;8.30;80.12;98804.75;4992799;28;20049;-80
2024/02/07 11:26:20;;;;;;;18.83;2.67;;;;;;;8.32;80.27;98803.72;4992366;28;20058;-81
2024/02/07 11:28:47;;;;;;;12.43;2.50;;;;;;;8.35;80.55;98800.06;4975361;28;20088;-79
2024/02/07 11:31:17;;;;;;;12.50;2.40;;;;;;;8.37;79.63;98805.22;4992400;28;20482;-80
2024/02/07 11:33:49;;;;;;;12.13;2.28;;;;;;;8.43;80.45;98812.69;4974972;28;20054;-79
2024/02/07 11:36:18;;;;;;;23.92;3.00;;;;;;;8.48;80.48;98814.09;4992034;28;20065;-78
2024/02/07 11:38:52;;;;;;;18.98;2.60;;;;;;;8.52;79.78;98809.47;4992384;28;20042;-79
2024/02/07 11:41:21;;;;;;;9.90;2.42;;;;;;;8.60;80.98;98811.66;4992423;28;20488;-79
2024/02/07 11:43:50;;;;;;;13.60;2.20;;;;;;;8.66;81.73;98813.03;4992167;28;20439;-80
2024/02/07 11:46:17;;;;;;;20.40;2.80;;;;;;;8.72;81.70;98802.97;4991901;28;20145;-79
2024/02/07 11:48:51;;;;;;;19.05;2.80;;;;;;;8.80;80.04;98818.25;4992074;28;20491;-77
2024/02/07 11:51:21;;;;;;;12.95;2.40;;;;;;;8.92;82.01;98815.75;4992269;28;20046;-79
2024/02/07 11:53:47;;;;;;;11.13;2.55;;;;;;;9.04;83.02;98811.50;4992101;28;20427;-79
2024/02/07 11:56:20;;;;;;;18.98;2.92;;;;;;;9.17;81.74;98811.50;4991786;28;20059;-77
2024/02/07 11:58:49;;;;;;;;;;;;;;;9.32;79.95;98799.97;4992633;28;20057;-79
2024/02/07 12:01:16;;;;;;;21.08;3.00;;;;;;;9.51;83.34;98802.22;4992160;28;20345;-80
2024/02/07 12:03:43;;;;;;;14.85;3.00;;;;;;;9.67;84.07;98802.91;4991916;28;20046;-79
2024/02/07 12:06:11;;;;;;;10.57;2.60;;;;;;;9.85;84.11;98801.66;4991640;28;20050;-79
2024/02/07 12:08:39;;;;;;;21.52;2.95;;;;;;;10.06;84.89;98800.28;4991851;28;20094;-79
2024/02/07 12:11:06;;;;;;;12.50;2.30;;;;;;;10.25;83.87;98798.00;4991716;28;20396;-77
2024/02/07 12:13:36;;;;;;;13.68;2.63;;;;;;;10.45;84.35;98793.16;4974545;28;20050;-79
2024/02/07 12:16:05;;;;;;;15.07;2.50;;;;;;;10.64;84.77;98787.38;4991307;28;20050;-79
2024/02/07 12:18:32;;;;;;;9.43;2.10;;;;;;;10.91;87.17;98780.19;4991888;28;20395;-78
2024/02/07 12:21:03;;;;;;;17.13;3.22;;;;;;;11.25;86.58;98775.03;4991571;28;20050;-79
2024/02/07 12:23:32;;;;;;;17.70;2.63;;;;;;;11.66;90.44;98777.25;4991554;28;20054;-79
2024/02/07 12:26:00;;;;;;;17.92;3.60;;;;;;;12.06;88.54;98776.78;4991479;28;20105;-77
2024/02/07 12:28:28;;;;;;;10.68;2.40;;;;;;;12.38;83.90;98781.28;4991640;28;20129;-79
2024/02/07 12:30:58;;;;;;;16.48;2.65;;;;;;;12.57;77.70;98792.16;4991528;28;20062;-79
2024/02/07 12:33:26;;;;;;;14.30;2.58;;;;;;;12.63;77.29;98789.88;4991593;28;20054;-79
2024/02/07 12:35:59;;;;;;;16.98;2.25;;;;;;;12.56;70.80;98796.59;4991161;28;20085;-79
2024/02/07 12:38:26;;;;;;;9.77;2.10;;;;;;;12.46;73.27;98793.88;4991604;28;20081;-78
2024/02/07 12:40:55;;;;;;;17.30;2.60;;;;;;;12.27;72.10;98793.69;4991546;28;20097;-79
2024/02/07 12:43:23;;;;;;;10.57;2.05;;;;;;;12.06;71.97;98791.78;4991426;28;20046;-78
2024/02/07 12:45:54;;;;;;;10.77;1.92;;;;;;;11.84;71.85;98798.69;4991075;28;20404;-79
2024/02/07 12:48:27;;;;;;;14.23;2.67;;;;;;;11.58;70.42;98793.66;4991339;28;20149;-79
2024/02/07 12:50:55;;;;;;;15.45;3.15;;;;;;;11.40;72.84;98794.09;4991243;28;20086;-78